Time;durP1;ratioP1;P1;durP2;ratioP2;P2;SDS_P1;SDS_P2;PMS_P1;PMS_P2;Temp;Humidity;BMP_temperature;BMP_pressure;BME280_temperature;BME280_humidity;BME280_pressure;Samples;Min_cycle;Max_cycle;Signal;HPM_P1;HPM_P2
2022/04/11 00:19:27;;;;;;;;;;;;;;;;;;;;;
2022/04/11 00:27:07;;;;;;;;;;;;;;;;;;;;;
2022/04/11 00:38:46;;;;;;;6.70;2.50;;;;;;;1.61;64.53;99311.86;103662;1309;22926;-89
2022/04/11 00:49:01;;;;;;;;;;;;;;;;;;;;;
2022/04/11 00:52:12;;;;;;;7.40;2.70;;;;;;;1.55;64.71;99321.52;104782;1293;25401;-89
2022/04/11 00:55:50;;;;;;;;;;;;;;;;;;;;;
2022/04/11 00:59:17;;;;;;;;;;;;;;;;;;;;;
2022/04/11 01:06:14;;;;;;;;;;;;;;;;;;;;;
2022/04/11 01:09:40;;;;;;;;;;;;;;;;;;;;;
2022/04/11 01:13:26;;;;;;;7.50;2.30;;;;;;;1.52;65.32;99336.36;104134;1306;25399;-91
2022/04/11 01:17:10;;;;;;;;;;;;;;;;;;;;;
2022/04/11 01:21:11;;;;;;;8.50;2.80;;;;;;;1.60;65.68;99331.01;102769;1318;22908;-90
2022/04/11 01:24:25;;;;;;;;;;;;;;;;;;;;;
2022/04/11 01:29:08;;;;;;;9.60;2.60;;;;;;;1.73;65.67;99335.71;103370;1313;549005;-91
2022/04/11 01:36:44;;;;;;;10.10;2.60;;;;;;;1.88;65.40;99339.26;105730;1287;22573;-89
2022/04/11 01:44:06;;;;;;;;;;;;;;;;;;;;;
2022/04/11 01:55:54;;;;;;;9.40;2.50;;;;;;;2.03;65.61;99353.70;103529;1310;24281;-88
2022/04/11 01:59:40;;;;;;;7.50;2.20;;;;;;;2.07;65.53;99357.41;103273;1313;22601;-89
2022/04/11 02:07:20;;;;;;;6.50;1.70;;;;;;;2.17;65.43;99357.25;104047;1312;548586;-91
2022/04/11 02:10:59;;;;;;;;;;;;;;;;;;;;;
2022/04/11 02:18:49;;;;;;;6.90;1.90;;;;;;;2.25;65.37;99360.17;104582;1297;25974;-91
2022/04/11 02:25:58;;;;;;;7.70;1.80;;;;;;;2.37;65.58;99350.42;104734;1302;22652;-91
2022/04/11 02:33:32;;;;;;;7.90;1.50;;;;;;;2.40;65.68;99356.29;102918;1315;23934;-89
2022/04/11 02:37:19;;;;;;;5.10;1.70;;;;;;;2.44;65.55;99356.90;102037;1325;25972;-91
2022/04/11 02:40:41;;;;;;;8.50;1.50;;;;;;;2.47;65.56;99357.84;102019;1328;22800;-90
2022/04/11 02:44:47;;;;;;;;;;;;;;;;;;;;;
2022/04/11 02:52:29;;;;;;;10.40;2.30;;;;;;;2.44;65.20;99340.90;104029;1304;22596;-91
2022/04/11 02:59:34;;;;;;;;;;;;;;;;;;;;;
2022/04/11 03:03:21;;;;;;;9.30;2.00;;;;;;;2.42;65.52;99357.48;104702;1297;25765;-90
2022/04/11 03:14:33;;;;;;;10.70;2.10;;;;;;;2.36;65.60;99354.70;102228;1319;23515;-90
2022/04/11 03:17:46;;;;;;;;;;;;;;;;;;;;;
2022/04/11 03:21:33;;;;;;;7.60;1.80;;;;;;;2.35;65.66;99364.92;101788;1327;24217;-87
2022/04/11 03:29:40;;;;;;;;;;;;;;;;;;;;;
2022/04/11 03:33:36;;;;;;;8.40;1.70;;;;;;;2.32;65.59;99366.96;105067;1294;25600;-89
2022/04/11 03:40:26;;;;;;;;;;;;;;;;;;;;;
2022/04/11 03:51:53;;;;;;;9.70;1.90;;;;;;;2.12;65.79;99376.04;102810;1313;23026;-89
2022/04/11 03:55:30;;;;;;;9.30;2.40;;;;;;;2.06;66.06;99381.52;102704;1315;23232;-89
2022/04/11 04:06:31;;;;;;;;;;;;;;;;;;;;;
2022/04/11 04:09:42;;;;;;;7.90;2.10;;;;;;;1.88;65.73;99387.70;105967;1283;22491;-89
2022/04/11 04:13:03;;;;;;;;;;;;;;;;;;;;;
2022/04/11 04:16:42;;;;;;;11.30;2.50;;;;;;;1.79;66.00;99387.84;101035;1290;5339506;-87
2022/04/11 04:20:21;;;;;;;;;;;;;;;;;;;;;
2022/04/11 04:23:37;;;;;;;9.80;2.10;;;;;;;1.78;66.05;99397.68;105063;1290;24226;-88
2022/04/11 04:26:15;;;;;;;9.60;2.20;;;;;;;1.85;66.19;99400.63;105145;1290;22574;-88
2022/04/11 04:29:50;;;;;;;9.30;1.70;;;;;;;1.91;66.04;99400.80;105508;1290;22587;-89
2022/04/11 04:33:14;;;;;;;;;;;;;;;;;;;;;
2022/04/11 04:37:08;;;;;;;8.70;1.50;;;;;;;1.94;65.80;99401.59;105887;1287;22787;-90
2022/04/11 04:39:36;;;;;;;8.00;1.70;;;;;;;1.98;66.21;99406.19;104461;1294;24268;-90
2022/04/11 04:42:43;;;;;;;10.80;1.90;;;;;;;2.05;65.97;99409.14;104437;1295;22510;-90
2022/04/11 04:45:52;;;;;;;;;;;;;;;;;;;;;
2022/04/11 04:48:59;;;;;;;;;;;;;;;;;;;;;
2022/04/11 04:52:05;;;;;;;;;;;;;;;;;;;;;
2022/04/11 04:54:43;;;;;;;14.50;3.40;;;;;;;2.32;65.89;99411.58;105272;1290;24207;-89
2022/04/11 04:57:37;;;;;;;;;;;;;;;;;;;;;
2022/04/11 05:04:17;;;;;;;;;;;;;;;;;;;;;
2022/04/11 05:11:49;;;;;;;6.70;1.40;;;;;;;2.65;65.73;99425.94;104991;1294;25434;-89
2022/04/11 05:15:05;;;;;;;8.50;1.60;;;;;;;2.74;65.83;99427.76;104580;1298;25380;-88
2022/04/11 05:17:53;;;;;;;10.30;1.60;;;;;;;2.82;65.67;99432.91;104768;1293;22660;-89
2022/04/11 05:21:41;;;;;;;8.80;1.80;;;;;;;2.89;65.60;99434.06;104437;1293;24095;-87
2022/04/11 05:24:50;;;;;;;;;;;;;;;;;;;;;
2022/04/11 05:28:08;;;;;;;8.30;1.50;;;;;;;3.10;65.32;99435.27;104206;1294;22545;-89
2022/04/11 05:31:18;;;;;;;8.30;1.60;;;;;;;3.22;65.32;99433.77;104238;1294;22578;-89
2022/04/11 05:34:32;;;;;;;11.70;1.80;;;;;;;3.35;65.36;99427.48;104065;1295;22578;-91
2022/04/11 05:37:11;;;;;;;12.70;1.70;;;;;;;3.48;65.27;99432.64;104564;1294;22840;-91
2022/04/11 05:40:09;;;;;;;11.20;1.70;;;;;;;3.66;65.37;99433.58;104079;1295;22812;-88
2022/04/11 05:43:00;;;;;;;8.10;1.40;;;;;;;3.79;64.95;99436.23;104152;1294;22526;-88
2022/04/11 05:46:32;;;;;;;8.50;1.50;;;;;;;3.87;65.12;99433.62;104894;1290;25260;-88
2022/04/11 05:50:25;;;;;;;7.50;1.20;;;;;;;3.99;65.18;99437.02;103778;1300;24240;-88
2022/04/11 05:53:11;;;;;;;9.50;1.60;;;;;;;4.31;65.37;99429.91;103985;1297;22871;-89
2022/04/11 05:56:12;;;;;;;;;;;;;;;;;;;;;
2022/04/11 05:59:03;;;;;;;;;;;;;;;;;;;;;
2022/04/11 06:06:15;;;;;;;9.00;1.80;;;;;;;5.59;64.41;99424.20;103784;1297;22741;-88
2022/04/11 06:09:08;;;;;;;8.30;1.30;;;;;;;5.74;64.12;99424.74;103802;1300;22739;-88
2022/04/11 06:16:53;;;;;;;7.20;1.40;;;;;;;6.28;64.28;99421.34;103698;1300;22570;-86
2022/04/11 06:20:17;;;;;;;14.20;1.90;;;;;;;6.37;63.41;99424.24;103072;1306;24239;-90
2022/04/11 06:22:46;;;;;;;10.40;1.70;;;;;;;6.37;63.41;99425.14;102829;1312;23227;-89
2022/04/11 06:25:37;;;;;;;7.20;2.00;;;;;;;6.42;63.46;99423.83;102921;1309;25932;-87
2022/04/11 06:28:21;;;;;;;13.50;1.70;;;;;;;6.35;63.11;99426.29;103340;1305;25290;-90
2022/04/11 06:30:51;;;;;;;8.60;1.40;;;;;;;6.29;63.63;99423.23;103650;1305;22799;-89
2022/04/11 06:33:31;;;;;;;9.20;1.80;;;;;;;6.34;63.30;99424.41;103449;1305;22728;-90
2022/04/11 06:37:08;;;;;;;9.30;1.50;;;;;;;6.39;63.58;99422.91;104168;1305;22913;-89
2022/04/11 06:40:05;;;;;;;7.80;1.80;;;;;;;6.68;63.55;99421.11;104119;1305;22569;-88
2022/04/11 06:42:48;;;;;;;7.60;1.30;;;;;;;6.82;63.22;99421.31;104290;1297;22748;-88
2022/04/11 06:45:50;;;;;;;9.50;1.70;;;;;;;6.89;63.09;99420.77;104938;1291;22568;-88
2022/04/11 06:48:33;;;;;;;11.70;1.90;;;;;;;6.87;62.77;99421.55;104603;1290;22582;-88
2022/04/11 06:52:03;;;;;;;;;;;;;;;;;;;;;
2022/04/11 06:54:56;;;;;;;14.70;2.00;;;;;;;7.23;62.79;99415.61;105701;1291;23420;-89
2022/04/11 06:57:48;;;;;;;8.10;1.50;;;;;;;7.44;63.04;99417.52;105583;1285;22548;-86
2022/04/11 07:00:38;;;;;;;8.10;1.70;;;;;;;7.53;62.59;99415.95;106242;1277;22888;-86
2022/04/11 07:03:41;;;;;;;5.90;1.70;;;;;;;7.65;61.82;99421.70;106734;1276;22541;-90
2022/04/11 07:06:26;;;;;;;7.80;1.20;;;;;;;7.74;62.01;99418.55;106551;1274;25353;-88
2022/04/11 07:10:30;;;;;;;5.90;1.20;;;;;;;7.85;61.32;99419.70;106327;1274;25589;-91
2022/04/11 07:13:07;;;;;;;8.40;1.20;;;;;;;7.83;61.24;99421.74;106210;1282;22707;-91
2022/04/11 07:15:55;;;;;;;9.30;1.30;;;;;;;7.80;61.74;99419.45;105523;1282;22541;-85
2022/04/11 07:19:14;;;;;;;;;;;;;;;;;;;;;
2022/04/11 07:22:04;;;;;;;15.50;4.30;;;;;;;8.15;61.47;99418.05;105740;1282;22579;-87
2022/04/11 07:25:02;;;;;;;;;;;;;;;;;;;;;
2022/04/11 07:28:22;;;;;;;;;;;;;;;;;;;;;
2022/04/11 07:32:04;;;;;;;;;;;;;;;;;;;;;
2022/04/11 07:35:30;;;;;;;5.80;1.20;;;;;;;8.22;59.48;99429.36;103960;1297;25264;-88
2022/04/11 07:39:14;;;;;;;;;;;;;;;;;;;;;
2022/04/11 07:42:10;;;;;;;24.90;13.00;;;;;;;8.58;60.14;99432.08;102873;1312;24254;-88
2022/04/11 07:45:30;;;;;;;8.10;2.00;;;;;;;8.68;59.48;99430.48;102966;1310;22731;-86
2022/04/11 07:48:47;;;;;;;12.10;2.60;;;;;;;8.76;59.74;99428.20;102937;1311;22852;-88
2022/04/11 07:52:34;;;;;;;10.00;1.90;;;;;;;8.96;60.06;99431.99;103122;1309;24260;-87
2022/04/11 07:55:57;;;;;;;;;;;;;;;;;;;;;
2022/04/11 07:59:15;;;;;;;9.00;2.40;;;;;;;9.17;58.35;99436.77;102684;1313;22643;-90
2022/04/11 08:03:13;;;;;;;5.70;1.20;;;;;;;9.21;58.72;99433.53;102593;1317;25461;-84
2022/04/11 08:06:01;;;;;;;;;;;;;;;;;;;;;
2022/04/11 08:08:58;;;;;;;5.30;1.10;;;;;;;9.45;56.75;99431.66;102407;1316;25617;-88
2022/04/11 08:11:38;;;;;;;7.00;1.00;;;;;;;9.31;57.61;99437.16;102791;1308;22604;-84
2022/04/11 08:14:43;;;;;;;;;;;;;;;;;;;;;
2022/04/11 08:18:48;;;;;;;6.00;1.20;;;;;;;9.50;58.33;99437.27;103682;1297;22583;-90
2022/04/11 08:21:27;;;;;;;4.90;0.90;;;;;;;9.64;57.42;99436.02;104045;1296;22737;-83
2022/04/11 08:25:00;;;;;;;5.90;1.00;;;;;;;9.80;56.98;99436.42;104119;1296;25499;-84
2022/04/11 08:28:15;;;;;;;5.80;0.90;;;;;;;9.76;56.17;99437.36;104364;1296;22566;-88
2022/04/11 08:31:53;;;;;;;5.80;1.20;;;;;;;10.00;57.03;99430.73;104691;1290;24338;-87
2022/04/11 08:34:21;;;;;;;5.20;1.00;;;;;;;9.86;56.49;99447.98;104641;1290;22503;-90
2022/04/11 08:37:24;;;;;;;9.60;2.80;;;;;;;9.59;55.98;99448.93;105573;1282;22538;-89
2022/04/11 08:40:35;;;;;;;4.80;1.20;;;;;;;9.41;56.45;99447.20;105402;1279;25307;-90
2022/04/11 08:43:38;;;;;;;7.90;1.40;;;;;;;9.29;56.62;99450.79;105308;1284;22566;-86
2022/04/11 08:46:49;;;;;;;7.60;1.50;;;;;;;9.00;56.01;99454.50;105406;1284;22541;-89
2022/04/11 08:49:23;;;;;;;9.60;1.80;;;;;;;8.86;56.78;99453.49;105384;1284;22555;-85
2022/04/11 08:52:12;;;;;;;;;;;;;;;;;;;;;
2022/04/11 08:54:43;;;;;;;5.10;1.60;;;;;;;9.79;57.05;99443.21;105370;1283;22668;-89
2022/04/11 08:57:17;;;;;;;7.20;1.90;;;;;;;10.39;56.48;99440.81;105355;1282;22764;-88
2022/04/11 09:00:12;;;;;;;8.00;1.80;;;;;;;10.94;56.76;99440.39;105698;1282;24210;-89
2022/04/11 09:03:00;;;;;;;10.60;2.40;;;;;;;11.07;56.32;99446.63;105289;1283;22626;-86
2022/04/11 09:06:16;;;;;;;8.90;1.80;;;;;;;10.37;54.62;99452.19;105305;1282;23232;-87
2022/04/11 09:10:23;;;;;;;9.70;2.00;;;;;;;9.79;56.12;99451.82;105593;1282;22711;-89
2022/04/11 09:13:34;;;;;;;8.50;2.90;;;;;;;9.61;56.53;99456.98;105494;1284;23874;-84
2022/04/11 09:16:12;;;;;;;7.90;2.30;;;;;;;9.36;55.87;99452.69;104783;1288;22680;-90
2022/04/11 09:19:44;;;;;;;9.50;2.20;;;;;;;9.02;56.40;99456.51;104620;1288;22572;-85
2022/04/11 09:22:11;;;;;;;7.30;2.40;;;;;;;8.68;56.39;99459.04;105704;1282;22642;-91
2022/04/11 09:24:49;;;;;;;9.90;2.50;;;;;;;8.54;56.76;99459.85;106043;1281;22597;-89
2022/04/11 09:28:17;;;;;;;;;;;;;;;;;;;;;
2022/04/11 09:30:49;;;;;;;7.40;2.20;;;;;;;8.50;56.71;99460.08;105664;1282;22623;-88
2022/04/11 09:34:42;;;;;;;6.80;1.90;;;;;;;8.43;56.34;99460.86;105780;1280;22872;-88
2022/04/11 09:37:04;;;;;;;9.70;2.70;;;;;;;8.46;56.23;99461.71;106018;1281;22566;-88
2022/04/11 09:40:04;;;;;;;10.50;2.40;;;;;;;8.62;56.70;99459.20;105896;1280;23165;-88
2022/04/11 09:42:55;;;;;;;5.60;1.70;;;;;;;9.10;56.06;99461.03;105797;1281;22539;-88
2022/04/11 09:45:48;;;;;;;8.30;1.90;;;;;;;9.22;56.33;99460.28;106157;1281;25240;-87
2022/04/11 09:48:55;;;;;;;11.90;3.10;;;;;;;9.39;56.35;99456.39;106166;1281;24539;-92
2022/04/11 09:51:34;;;;;;;9.20;1.90;;;;;;;9.62;54.65;99452.34;105720;1281;25576;-89
2022/04/11 09:54:51;;;;;;;10.30;3.90;;;;;;;10.10;53.77;99445.20;106557;1274;25228;-88
2022/04/11 09:57:52;;;;;;;16.50;7.10;;;;;;;10.59;53.79;99441.73;106369;1274;25329;-88
2022/04/11 10:00:36;;;;;;;;;;;;;;;;;;;;;
2022/04/11 10:03:25;;;;;;;14.00;4.70;;;;;;;10.59;55.57;99435.98;105849;1276;24221;-88
2022/04/11 10:06:15;;;;;;;8.70;2.20;;;;;;;10.54;55.28;99430.39;106397;1276;22558;-87
2022/04/11 10:09:01;;;;;;;7.40;1.60;;;;;;;10.49;55.47;99430.43;105923;1276;22600;-84
2022/04/11 10:11:34;;;;;;;8.00;1.70;;;;;;;10.25;53.64;99431.80;105910;1276;23976;-86
2022/04/11 10:14:36;;;;;;;;;;;;;;;;;;;;;
2022/04/11 10:17:31;;;;;;;;;;;;;;;;;;;;;
2022/04/11 10:20:33;;;;;;;4.60;1.00;;;;;;;9.33;54.78;99437.91;105884;1276;25305;-86
2022/04/11 10:23:19;;;;;;;7.20;1.30;;;;;;;9.58;55.08;99433.73;106439;1276;23254;-88
2022/04/11 10:25:54;;;;;;;5.80;1.10;;;;;;;9.98;54.99;99428.56;106172;1276;24461;-89
2022/04/11 10:29:25;;;;;;;6.70;1.00;;;;;;;10.24;54.49;99424.54;106591;1279;22595;-88
2022/04/11 10:32:05;;;;;;;4.10;0.80;;;;;;;10.39;54.09;99426.25;106227;1276;22547;-85
2022/04/11 10:35:00;;;;;;;7.00;1.60;;;;;;;10.42;52.51;99422.65;105948;1276;25251;-90
2022/04/11 10:38:02;;;;;;;6.60;2.00;;;;;;;10.29;51.23;99417.13;106322;1276;25297;-87
2022/04/11 10:41:31;;;;;;;;;;;;;;;;;;;;;
2022/04/11 10:44:29;;;;;;;5.80;0.70;;;;;;;10.34;52.42;99413.05;106401;1279;22685;-89
2022/04/11 10:47:30;;;;;;;;;;;;;;;;;;;;;
2022/04/11 10:50:23;;;;;;;6.00;1.00;;;;;;;10.98;52.99;99404.31;105601;1282;22760;-91
2022/04/11 10:53:26;;;;;;;;;;;;;;;;;;;;;
2022/04/11 10:56:22;;;;;;;3.00;0.90;;;;;;;12.08;51.78;99398.20;106432;1279;24139;-86
2022/04/11 10:58:51;;;;;;;3.80;0.60;;;;;;;12.51;50.69;99394.30;105873;1279;25629;-86
2022/04/11 11:01:47;;;;;;;3.60;1.00;;;;;;;12.48;49.90;99389.87;106087;1279;24419;-91
2022/04/11 11:04:50;;;;;;;7.40;1.40;;;;;;;12.25;51.02;99394.83;106565;1282;24204;-89
2022/04/11 11:07:47;;;;;;;6.50;1.20;;;;;;;11.82;50.53;99397.01;105806;1279;25589;-89
2022/04/11 11:10:43;;;;;;;7.20;1.70;;;;;;;11.08;50.58;99404.55;105749;1280;22488;-87
2022/04/11 11:13:57;;;;;;;6.70;1.40;;;;;;;10.55;51.10;99413.27;107002;1274;25348;-84
2022/04/11 11:17:28;;;;;;;6.60;1.80;;;;;;;10.18;50.20;99413.35;106247;1276;25222;-89
2022/04/11 11:20:33;;;;;;;;;;;;;;;;;;;;;
2022/04/11 11:23:31;;;;;;;5.70;1.40;;;;;;;9.70;52.05;99410.77;106527;1274;25629;-88
2022/04/11 11:26:15;;;;;;;5.50;1.30;;;;;;;9.72;51.36;99404.41;106225;1275;25333;-89
2022/04/11 11:29:37;;;;;;;7.60;1.00;;;;;;;9.57;51.03;99402.69;106392;1275;22806;-89
2022/04/11 11:32:35;;;;;;;7.70;1.60;;;;;;;9.47;51.30;99402.42;106552;1274;22540;-90
2022/04/11 11:36:45;;;;;;;8.10;1.70;;;;;;;9.70;51.50;99396.72;106954;1274;24271;-85
2022/04/11 11:39:56;;;;;;;11.40;2.00;;;;;;;10.26;51.66;99397.56;106362;1279;24326;-82
2022/04/11 11:44:05;;;;;;;6.80;1.40;;;;;;;10.74;50.14;99395.80;106847;1273;22540;-83
2022/04/11 11:51:44;;;;;;;5.00;1.20;;;;;;;11.57;50.56;99381.68;106031;1289;24236;-85
2022/04/11 11:55:05;;;;;;;4.40;1.30;;;;;;;11.96;51.06;99378.87;105255;1290;25378;-84
2022/04/11 11:58:52;;;;;;;;;;;;;;;;;;;;;
2022/04/11 12:06:11;;;;;;;;;;;;;;;;;;;;;
2022/04/11 12:10:04;;;;;;;8.80;1.70;;;;;;;13.06;49.29;99349.03;103722;1306;25321;-81
2022/04/11 12:13:24;;;;;;;6.60;1.30;;;;;;;12.99;48.70;99351.14;103186;1305;25394;-85
2022/04/11 12:16:20;;;;;;;;;;;;;;;;;;;;;
2022/04/11 12:19:49;;;;;;;;;;;;;;;;;;;;;
2022/04/11 12:23:22;;;;;;;;;;;;;;;;;;;;;
2022/04/11 12:26:17;;;;;;;;;;;;;;;;;;;;;
2022/04/11 12:29:46;;;;;;;6.90;1.70;;;;;;;11.94;49.14;99344.05;104242;1297;25394;-85
2022/04/11 12:32:40;;;;;;;;;;;;;;;;;;;;;
2022/04/11 12:35:53;;;;;;;;;;;;;;;;;;;;;
2022/04/11 12:39:21;;;;;;;;;;;;;;;;;;;;;
2022/04/11 12:42:48;;;;;;;;;;;;;;;;;;;;;
2022/04/11 12:45:44;;;;;;;6.30;2.00;;;;;;;12.47;48.50;99329.42;105714;1281;22568;-87
2022/04/11 12:48:23;;;;;;;8.60;2.00;;;;;;;12.43;48.62;99323.81;105592;1281;24266;-87
2022/04/11 12:51:31;;;;;;;7.50;2.30;;;;;;;12.32;48.07;99318.74;105704;1280;22547;-85
2022/04/11 12:55:08;;;;;;;9.50;2.90;;;;;;;12.22;48.74;99317.01;106092;1279;22537;-85
2022/04/11 12:58:09;;;;;;;13.10;5.50;;;;;;;12.50;48.22;99316.48;104920;1288;22570;-87
2022/04/11 13:02:03;;;;;;;13.00;4.70;;;;;;;12.97;48.95;99313.64;104997;1288;22595;-85
2022/04/11 13:04:32;;;;;;;11.30;4.20;;;;;;;12.98;47.05;99311.21;105789;1284;25405;-86
2022/04/11 13:08:13;;;;;;;16.10;7.80;;;;;;;12.53;47.83;99307.33;105285;1284;22544;-85
2022/04/11 13:10:55;;;;;;;10.30;3.90;;;;;;;12.54;46.97;99300.86;105654;1282;25574;-85
2022/04/11 13:14:24;;;;;;;10.50;3.20;;;;;;;12.79;48.50;99297.34;105809;1284;22594;-85
2022/04/11 13:20:36;;;;;;;7.90;3.40;;;;;;;13.70;47.56;99289.77;105742;1285;24258;-84
2022/04/11 13:23:08;;;;;;;12.20;6.20;;;;;;;13.99;47.63;99288.48;105464;1284;25251;-83
2022/04/11 13:25:46;;;;;;;11.40;4.70;;;;;;;14.50;47.23;99286.85;105694;1284;22557;-85
2022/04/11 13:28:26;;;;;;;12.50;3.20;;;;;;;14.76;44.88;99278.77;105459;1282;22548;-85
2022/04/11 13:31:18;;;;;;;42.20;12.00;;;;;;;14.51;45.96;99274.79;105562;1284;22683;-84
2022/04/11 13:34:06;;;;;;;;;;;;;;;;;;;;;
2022/04/11 13:37:38;;;;;;;11.70;3.30;;;;;;;13.86;46.50;99276.99;105976;1275;25219;-86
2022/04/11 13:40:36;;;;;;;8.10;2.90;;;;;;;13.56;47.08;99280.52;106654;1275;24394;-86
2022/04/11 13:43:16;;;;;;;18.10;4.40;;;;;;;13.42;47.36;99279.52;106338;1276;23950;-84
2022/04/11 13:46:34;;;;;;;;;;;;;;;;;;;;;
2022/04/11 13:49:45;;;;;;;;;;;;;;;;;;;;;
2022/04/11 13:52:36;;;;;;;9.50;2.60;;;;;;;13.19;45.92;99269.48;106339;1274;24225;-83
2022/04/11 13:56:05;;;;;;;;;;;;;;;;;;;;;
2022/04/11 13:59:04;;;;;;;10.00;3.50;;;;;;;12.14;46.12;99270.69;106553;1274;25352;-85
2022/04/11 14:02:17;;;;;;;8.90;2.90;;;;;;;12.08;46.54;99270.08;106600;1276;22554;-86
2022/04/11 14:05:16;;;;;;;7.90;2.50;;;;;;;12.39;46.32;99265.35;106904;1274;22566;-86
2022/04/11 14:07:49;;;;;;;21.30;7.30;;;;;;;13.00;46.17;99250.48;106123;1276;22620;-85
2022/04/11 14:10:51;;;;;;;9.50;3.10;;;;;;;13.18;45.59;99249.20;105999;1276;22638;-86
2022/04/11 14:14:27;;;;;;;8.10;2.40;;;;;;;13.20;44.86;99245.63;106591;1274;22704;-85
2022/04/11 14:17:21;;;;;;;8.50;3.00;;;;;;;12.70;45.33;99246.19;106723;1274;22562;-85
2022/04/11 14:20:13;;;;;;;7.30;1.60;;;;;;;12.67;44.78;99241.95;106469;1275;22565;-85
2022/04/11 14:23:30;;;;;;;6.20;1.70;;;;;;;12.64;45.45;99244.55;106329;1276;22633;-86
2022/04/11 14:26:12;;;;;;;4.60;1.40;;;;;;;12.95;45.06;99239.26;106138;1276;24292;-84
2022/04/11 14:28:45;;;;;;;12.20;4.80;;;;;;;13.07;45.68;99234.55;105853;1277;22575;-87
2022/04/11 14:31:44;;;;;;;6.60;1.70;;;;;;;13.28;45.60;99233.29;105966;1276;24444;-85
2022/04/11 14:34:26;;;;;;;6.20;1.30;;;;;;;13.07;45.54;99236.13;106088;1275;25348;-85
2022/04/11 14:37:56;;;;;;;;;;;;;;;;;;;;;
2022/04/11 14:41:16;;;;;;;5.90;1.20;;;;;;;12.70;45.05;99234.96;106357;1274;22582;-86
2022/04/11 14:44:47;;;;;;;;;;;;;;;;;;;;;
2022/04/11 14:48:25;;;;;;;6.80;1.90;;;;;;;12.35;45.49;99226.59;105823;1281;25195;-84
2022/04/11 14:51:30;;;;;;;;;;;;;;;;;;;;;
2022/04/11 14:54:24;;;;;;;;;;;;;;;;;;;;;
2022/04/11 14:57:34;;;;;;;;;;;;;;;;;;;;;
2022/04/11 15:01:23;;;;;;;;;;;;;;;;;;;;;
2022/04/11 15:07:49;;;;;;;8.40;2.10;;;;;;;12.01;44.52;99221.16;105025;1288;26595;-85
2022/04/11 15:11:03;;;;;;;;;;;;;;;;;;;;;
2022/04/11 15:14:39;;;;;;;14.60;4.80;;;;;;;11.72;44.03;99218.48;104306;1294;23159;-87
2022/04/11 15:17:55;;;;;;;;;;;;;;;;;;;;;
2022/04/11 15:21:06;;;;;;;9.90;2.20;;;;;;;11.41;44.31;99216.84;104487;1293;24168;-85
2022/04/11 15:24:04;;;;;;;12.50;3.60;;;;;;;11.79;44.56;99214.75;104552;1288;22625;-87
2022/04/11 15:27:09;;;;;;;;;;;;;;;;;;;;;
2022/04/11 15:31:05;;;;;;;;;;;;;;;;;;;;;
2022/04/11 15:35:19;;;;;;;6.00;1.40;;;;;;;12.29;44.33;99211.04;104956;1289;24325;-85
2022/04/11 15:38:09;;;;;;;6.20;1.60;;;;;;;12.12;44.33;99211.78;105001;1282;24260;-86
2022/04/11 15:41:20;;;;;;;6.70;1.40;;;;;;;12.01;44.51;99208.31;105959;1274;22581;-87
2022/04/11 15:44:12;;;;;;;9.10;2.20;;;;;;;11.84;44.42;99211.33;106265;1276;23231;-86
2022/04/11 15:48:01;;;;;;;18.40;8.00;;;;;;;11.71;44.40;99209.80;106205;1274;23452;-84
2022/04/11 15:51:49;;;;;;;23.30;20.40;;;;;;;11.51;44.65;99211.44;106774;1274;22625;-84
2022/04/11 15:55:06;;;;;;;14.00;10.30;;;;;;;11.42;44.58;99212.68;104926;1287;22566;-85
2022/04/11 15:58:38;;;;;;;;;;;;;;;;;;;;;
2022/04/11 16:02:23;;;;;;;32.70;13.20;;;;;;;11.47;44.43;99208.92;104845;1288;25335;-87
2022/04/11 16:05:49;;;;;;;30.20;24.60;;;;;;;11.60;44.08;99210.98;105349;1287;27573;-84
2022/04/11 16:08:49;;;;;;;32.90;19.60;;;;;;;12.40;43.64;99202.66;105388;1287;26127;-85
2022/04/11 16:12:12;;;;;;;;;;;;;;;;;;;;;
2022/04/11 16:15:25;;;;;;;;;;;;;;;;;;;;;
2022/04/11 16:18:43;;;;;;;27.30;10.00;;;;;;;11.66;44.05;99200.91;105189;1287;22589;-89
2022/04/11 16:21:36;;;;;;;48.10;13.10;;;;;;;11.51;44.22;99198.28;105132;1288;25305;-84
2022/04/11 16:24:51;;;;;;;;;;;;;;;;;;;;;
2022/04/11 16:36:43;;;;;;;;;;;;;;;;;;;;;
2022/04/11 16:39:43;;;;;;;20.90;5.40;;;;;;;10.22;44.45;99214.17;105125;1287;22767;-87
2022/04/11 16:47:04;;;;;;;35.80;10.50;;;;;;;9.94;44.56;99216.44;105628;1286;25408;-84
2022/04/11 16:50:53;;;;;;;;;;;;;;;;;;;;;
2022/04/11 17:01:24;;;;;;;17.40;5.80;;;;;;;9.44;44.56;99212.98;105339;1291;26634;-85
2022/04/11 17:04:23;;;;;;;;;;;;;;;;;;;;;
2022/04/11 17:07:58;;;;;;;10.90;4.00;;;;;;;9.26;45.06;99218.59;104492;1294;22583;-86
2022/04/11 17:11:00;;;;;;;15.40;6.20;;;;;;;9.16;44.74;99221.36;105730;1287;25484;-84
2022/04/11 17:14:03;;;;;;;19.00;10.90;;;;;;;8.99;44.67;99218.71;105132;1289;25444;-85
2022/04/11 17:20:08;;;;;;;;;;;;;;;;;;;;;
2022/04/11 17:24:01;;;;;;;13.00;5.30;;;;;;;8.40;44.30;99223.61;105891;1282;24056;-84
2022/04/11 17:27:17;;;;;;;;;;;;;;;;;;;;;
2022/04/11 17:30:16;;;;;;;;;;;;;;;;;;;;;
2022/04/11 17:33:20;;;;;;;16.60;4.00;;;;;;;7.54;44.95;99229.02;106084;1277;24243;-85
2022/04/11 17:36:21;;;;;;;19.90;6.30;;;;;;;7.22;44.74;99231.13;106065;1276;23782;-86
2022/04/11 17:40:05;;;;;;;14.30;5.10;;;;;;;6.98;45.01;99237.94;106183;1276;23112;-84
2022/04/11 17:43:01;;;;;;;;;;;;;;;;;;;;;
2022/04/11 17:46:12;;;;;;;19.30;7.90;;;;;;;6.37;45.45;99249.72;106148;1277;22738;-87
2022/04/11 17:48:55;;;;;;;19.30;7.50;;;;;;;6.12;45.57;99251.14;106040;1276;22563;-85
2022/04/11 17:52:50;;;;;;;23.30;8.30;;;;;;;5.94;45.42;99248.35;105907;1277;25208;-83
2022/04/11 17:55:47;;;;;;;28.60;10.70;;;;;;;5.68;46.03;99248.56;105940;1282;24470;-85
2022/04/11 17:59:19;;;;;;;;;;;;;;;;;;;;;
2022/04/11 18:03:20;;;;;;;40.00;13.50;;;;;;;5.35;45.94;99260.23;104781;1290;24333;-84
2022/04/11 18:06:39;;;;;;;;;;;;;;;;;;;;;
2022/04/11 18:09:49;;;;;;;;;;;;;;;;;;;;;
2022/04/11 18:12:37;;;;;;;68.50;22.20;;;;;;;4.97;46.40;99268.87;104170;1297;23970;-85
2022/04/11 18:16:16;;;;;;;67.40;23.30;;;;;;;4.91;46.55;99274.29;104203;1297;22864;-85
2022/04/11 18:19:17;;;;;;;;;;;;;;;;;;;;;
2022/04/11 18:22:43;;;;;;;;;;;;;;;;;;;;;
2022/04/11 18:26:22;;;;;;;59.40;26.90;;;;;;;4.70;46.85;99286.02;103771;1303;24310;-86
2022/04/11 18:32:42;;;;;;;;;;;;;;;;;;;;;
2022/04/11 18:36:00;;;;;;;;;;;;;;;;;;;;;
2022/04/11 18:39:40;;;;;;;38.50;19.30;;;;;;;4.24;47.19;99292.77;104349;1294;26924;-84
2022/04/11 18:43:59;;;;;;;;;;;;;;;;;;;;;
2022/04/11 18:47:36;;;;;;;;;;;;;;;;;;;;;
2022/04/11 18:51:03;;;;;;;30.60;12.60;;;;;;;4.08;47.12;99302.08;104491;1297;22570;-85
2022/04/11 18:54:17;;;;;;;;;;;;;;;;;;;;;
2022/04/11 18:57:54;;;;;;;;;;;;;;;;;;;;;
2022/04/11 19:02:07;;;;;;;52.30;20.80;;;;;;;3.89;47.63;99320.83;104404;1300;24204;-82
2022/04/11 19:05:00;;;;;;;;;;;;;;;;;;;;;
2022/04/11 19:09:12;;;;;;;56.00;18.40;;;;;;;3.80;47.88;99323.30;103892;1305;22539;-86
2022/04/11 19:12:40;;;;;;;63.20;21.10;;;;;;;3.77;48.17;99324.28;103868;1306;25430;-85
2022/04/11 19:15:47;;;;;;;;;;;;;;;;;;;;;
2022/04/11 19:19:10;;;;;;;;;;;;;;;;;;;;;
2022/04/11 19:23:16;;;;;;;60.10;23.90;;;;;;;3.62;48.11;99323.84;103366;1306;25264;-84
2022/04/11 19:26:29;;;;;;;;;;;;;;;;;;;;;
2022/04/11 19:30:44;;;;;;;;;;;;;;;;;;;;;
2022/04/11 19:33:37;;;;;;;;;;;;;;;;;;;;;
2022/04/11 19:40:20;;;;;;;55.30;22.60;;;;;;;3.33;48.35;99322.86;103502;1308;23741;-84
2022/04/11 19:44:09;;;;;;;63.50;26.70;;;;;;;3.31;48.76;99323.83;103410;1310;22618;-84
2022/04/11 19:51:24;;;;;;;;;;;;;;;;;;;;;
2022/04/11 19:54:57;;;;;;;;;;;;;;;;;;;;;
2022/04/11 20:02:21;;;;;;;41.00;15.20;;;;;;;3.08;49.04;99331.03;102954;1311;25323;-85
2022/04/11 20:05:57;;;;;;;34.50;13.70;;;;;;;3.00;48.86;99330.96;103257;1308;24798;-82
2022/04/11 20:09:11;;;;;;;;;;;;;;;;;;;;;
2022/04/11 20:16:28;;;;;;;41.30;15.00;;;;;;;2.75;49.18;99333.82;104400;1306;24191;-90
2022/04/11 20:19:48;;;;;;;44.90;16.90;;;;;;;2.67;49.23;99333.23;103373;1306;22590;-87
2022/04/11 20:23:37;;;;;;;48.30;17.90;;;;;;;2.64;49.59;99329.64;104322;1302;25592;-85
2022/04/11 20:26:52;;;;;;;;;;;;;;;;;;;;;
2022/04/11 20:31:09;;;;;;;58.60;22.60;;;;;;;2.54;49.42;99333.52;104099;1297;23195;-86
2022/04/11 20:37:42;;;;;;;;;;;;;;;;;;;;;
2022/04/11 20:44:06;;;;;;;48.00;18.70;;;;;;;2.29;50.09;99332.27;103293;1313;22779;-89
2022/04/11 20:47:20;;;;;;;47.80;19.00;;;;;;;2.27;49.93;99332.84;102916;1311;22143;-87
2022/04/11 20:50:20;;;;;;;48.60;18.70;;;;;;;2.26;50.10;99333.96;103305;1308;25752;-86
2022/04/11 20:52:59;;;;;;;52.40;20.80;;;;;;;2.25;49.48;99336.77;102991;1311;22603;-86
2022/04/11 20:56:21;;;;;;;;;;;;;;;;;;;;;
2022/04/11 20:59:26;;;;;;;48.30;18.40;;;;;;;2.27;50.10;99336.20;102779;1311;22548;-84
2022/04/11 21:02:45;;;;;;;;;;;;;;;;;;;;;
2022/04/11 21:05:51;;;;;;;43.80;16.50;;;;;;;2.04;50.40;99341.02;103172;1308;25295;-87
2022/04/11 21:09:08;;;;;;;;;;;;;;;;;;;;;